21:29
Airports
History
Links
Donate
Help keep this website running!
PayPal
Bitcoin
This page is community maintained. The information is intended for PC simulator navigation or reference.
Always use approved charts for navigation.
NZPI
Parakai
Parakai (NZPI)
Parakai, Auckland, New Zealand (874)
4
Lat/Lng:36° 39' 6.87" S / 174° 26' 10.55" E
-36.651909 / 174.436264
Elevation:6'ft / 2mMSL
ID / ICAO:NZPI
Runways:1
Longest:07-25
Grass 660m / 2,165ft
Nearby Weather02:00 GMT 2017-11-16
Nearby weather at NZWP, Whenuapai located 14.4 nautical miles from NZPI
Altimeter: 30.15
Visibility: statute miles
Wind: 13 knots (from 060°)
Temp: 19°c / 66°f
Humidity: 55.9%

METAR: NZWP 160200Z 06013KT 30KM SCT033 19/10 Q1021 NOSIG

(Powered by phpweather)
Runway 07 / 25
Dimensions:659.8 x 10.1m 2165' x 33'ft
Surface:Grass
Runway 07 [A]Runway 25 [B]
Heading:090°TH 270°TH
Lat:
Lng:
36° 39' 6.87"S
174° 25' 57.36"E
36° 39' 6.87"S
174° 26' 23.74"E
User Notes and Comments
36° 39' 6.87" S / 174° 26' 10.55" E
Distance To
Airport ID:
Nearby Airports
(C) North Shore 12.2 NM
NZNE E 91°
(C) Whenuapai 14.4 NM
NZWP ( WX ) SE 131°
(C) Hobsonville 15.8 NM
NZHB SE 127°
4 Kaipara Flats 18.9 NM
NZKF NNE 26°
(U) Springhill 23.6 NM
NZSL NNE 16°
4 Pikes Point 28.4 NM
NZPK SE 132°
(C) Auckland International 31.5 NM
NZAA ( WX ) SE 142°
VFR Chart
Flight Planning at SkyVector.com